createdAt,value
2016-02-22T00:00:13.660Z,0
2016-02-22T00:01:13.663Z,0
2016-02-22T00:02:13.713Z,0
2016-02-22T00:03:13.731Z,0
2016-02-22T00:04:13.750Z,0
2016-02-22T00:05:13.943Z,0
2016-02-22T00:06:13.773Z,0
2016-02-22T00:07:13.807Z,0
2016-02-22T00:08:13.700Z,0
2016-02-22T00:09:13.829Z,0
2016-02-22T00:10:13.862Z,0
2016-02-22T00:11:13.865Z,0
2016-02-22T00:12:13.899Z,0
2016-02-22T00:13:13.948Z,0
2016-02-22T00:14:13.951Z,0
2016-02-22T00:15:14.094Z,0
2016-02-22T00:16:13.993Z,0
2016-02-22T00:17:14.011Z,0
2016-02-22T00:18:14.061Z,0
2016-02-22T00:19:14.047Z,0
2016-02-22T00:20:14.082Z,0
2016-02-22T00:21:14.099Z,0
2016-02-22T00:22:14.118Z,0
2016-02-22T00:23:14.168Z,0
2016-02-22T00:24:14.186Z,0
2016-02-22T00:25:14.188Z,0
2016-02-22T00:26:14.207Z,0
2016-02-22T00:27:14.226Z,0
2016-02-22T00:28:14.243Z,0
2016-02-22T00:29:14.293Z,0
2016-02-22T00:30:14.296Z,0
2016-02-22T00:31:14.315Z,0
2016-02-22T00:32:14.348Z,0
2016-02-22T00:33:14.351Z,0
2016-02-22T00:34:14.384Z,0
2016-02-22T00:35:14.387Z,0
2016-02-22T00:36:14.422Z,0
2016-02-22T00:37:14.564Z,0
2016-02-22T00:38:14.473Z,0
2016-02-22T00:39:14.492Z,0
2016-02-22T00:40:14.495Z,0
2016-02-22T00:41:14.544Z,0
2016-02-22T00:42:14.547Z,0
2016-02-22T00:43:14.566Z,0
2016-02-22T00:44:14.615Z,0
2016-02-22T00:45:14.602Z,0
2016-02-22T00:46:14.635Z,0
2016-02-22T00:47:14.655Z,0
2016-02-22T00:48:14.672Z,0
2016-02-22T00:49:14.722Z,0
2016-02-22T00:50:14.724Z,0
2016-02-22T00:51:14.759Z,0
2016-02-22T00:52:14.761Z,0
2016-02-22T00:53:14.810Z,0
2016-02-22T00:54:14.829Z,0
2016-02-22T00:55:14.832Z,0
2016-02-22T00:56:14.866Z,0
2016-02-22T00:57:14.868Z,0
2016-02-22T00:58:14.902Z,0
2016-02-22T00:59:14.951Z,0
2016-02-22T01:00:14.940Z,0
2016-02-22T01:01:14.957Z,0
2016-02-22T01:02:14.991Z,0
2016-02-22T01:03:14.995Z,0
2016-02-22T01:04:15.029Z,0
2016-02-22T01:05:15.031Z,0
2016-02-22T01:06:15.064Z,0
2016-02-22T01:07:15.099Z,0
2016-02-22T01:08:15.164Z,0
2016-02-22T01:09:15.136Z,0
2016-02-22T01:10:15.138Z,0
2016-02-22T01:11:15.187Z,0
2016-02-22T01:12:15.189Z,0
2016-02-22T01:13:15.208Z,0
2016-02-22T01:14:15.274Z,0
2016-02-22T01:15:15.245Z,0
2016-02-22T01:16:15.294Z,0
2016-02-22T01:17:15.282Z,0
2016-02-22T01:18:15.316Z,0
2016-02-22T01:19:15.365Z,0
2016-02-22T01:20:15.352Z,0
2016-02-22T01:21:15.386Z,0
2016-02-22T01:22:15.404Z,0
2016-02-22T01:23:15.329Z,0
2016-02-22T01:24:15.441Z,0
2016-02-22T01:25:15.474Z,0
2016-02-22T01:26:15.477Z,0
2016-02-22T01:27:15.496Z,0
2016-02-22T01:28:15.562Z,0
2016-02-22T01:29:15.548Z,0
2016-02-22T01:30:15.582Z,0
2016-02-22T01:31:15.632Z,0
2016-02-22T01:32:15.618Z,0
2016-02-22T01:33:15.653Z,0
2016-02-22T01:34:15.656Z,0
2016-02-22T01:35:15.689Z,0
2016-02-22T01:36:15.692Z,0
2016-02-22T01:37:15.726Z,0
2016-02-22T01:38:15.776Z,0
2016-02-22T01:39:15.778Z,0
2016-02-22T01:40:15.781Z,0
2016-02-22T01:41:15.862Z,0
2016-02-22T01:42:15.864Z,0
2016-02-22T01:43:15.836Z,0
2016-02-22T01:44:15.886Z,0
2016-02-22T01:45:15.888Z,0
2016-02-22T01:46:15.922Z,0
2016-02-22T01:47:15.956Z,0
2016-02-22T01:48:15.959Z,0
2016-02-22T01:49:16.008Z,0
2016-02-22T01:50:15.996Z,0
2016-02-22T01:51:16.030Z,0
2016-02-22T01:52:16.032Z,0
2016-02-22T01:53:16.082Z,0
2016-02-22T01:54:16.085Z,0
2016-02-22T01:55:16.149Z,0
2016-02-22T01:56:16.168Z,0
2016-02-22T01:57:16.155Z,0
2016-02-22T01:58:16.173Z,0
2016-02-22T01:59:16.176Z,0
2016-02-22T02:00:16.210Z,0
2016-02-22T02:01:16.228Z,0
2016-02-22T02:02:16.246Z,0
2016-02-22T02:03:16.452Z,0
2016-02-22T02:04:16.299Z,0
2016-02-22T02:05:16.317Z,0
2016-02-22T02:06:16.179Z,0
2016-02-22T02:07:16.354Z,0
2016-02-22T02:08:16.481Z,0
2016-02-22T02:09:16.406Z,0
2016-02-22T02:10:16.425Z,0
2016-02-22T02:11:16.427Z,0
2016-02-22T02:12:16.492Z,0
2016-02-22T02:13:16.479Z,0
2016-02-22T02:14:16.528Z,0
2016-02-22T02:15:16.516Z,0
2016-02-22T02:16:16.627Z,0
2016-02-22T02:17:16.614Z,0
2016-02-22T02:18:16.586Z,0
2016-02-22T02:19:16.682Z,0
2016-02-22T02:20:16.638Z,0
2016-02-22T02:21:16.672Z,0
2016-02-22T02:22:16.707Z,0
2016-02-22T02:23:16.693Z,0
2016-02-22T02:24:16.728Z,0
2016-02-22T02:25:16.730Z,0
2016-02-22T02:26:16.639Z,0
2016-02-22T02:27:16.830Z,0
2016-02-22T02:28:16.894Z,0
2016-02-22T02:29:16.976Z,0
2016-02-22T02:30:16.869Z,0
2016-02-22T02:31:17.059Z,0
2016-02-22T02:32:16.890Z,0
2016-02-22T02:33:17.002Z,0
2016-02-22T02:34:17.004Z,0
2016-02-22T02:35:16.945Z,0
2016-02-22T02:36:16.995Z,0
2016-02-22T02:37:17.012Z,0
2016-02-22T02:38:17.093Z,0
2016-02-22T02:39:17.237Z,0
2016-02-22T02:40:17.255Z,0
2016-02-22T02:41:17.211Z,0
2016-02-22T02:42:17.229Z,0
2016-02-22T02:43:17.106Z,0
2016-02-22T02:44:17.141Z,0
2016-02-22T02:45:17.174Z,0
2016-02-22T02:46:17.177Z,0
2016-02-22T02:47:17.195Z,0
2016-02-22T02:48:17.244Z,0
2016-02-22T02:49:17.232Z,0
2016-02-22T02:50:17.297Z,0
2016-02-22T02:51:17.471Z,0
2016-02-22T02:52:17.552Z,0
2016-02-22T02:53:17.524Z,0
2016-02-22T02:54:17.682Z,0
2016-02-22T02:55:17.607Z,0
2016-02-22T02:56:17.423Z,0
2016-02-22T02:57:17.441Z,0
2016-02-22T02:58:17.662Z,0
2016-02-22T02:59:17.462Z,0
2016-02-22T03:00:17.480Z,0
2016-02-22T03:01:17.498Z,0
2016-02-22T03:02:17.532Z,0
2016-02-22T03:03:17.535Z,0
2016-02-22T03:04:17.570Z,0
2016-02-22T03:05:17.760Z,0
2016-02-22T03:06:17.606Z,0
2016-02-22T03:07:17.640Z,0
2016-02-22T03:08:17.643Z,0
2016-02-22T03:09:17.661Z,0
2016-02-22T03:10:17.695Z,0
2016-02-22T03:11:17.729Z,0
2016-02-22T03:12:17.731Z,0
2016-02-22T03:13:17.765Z,0
2016-02-22T03:14:17.783Z,0
2016-02-22T03:15:17.787Z,0
2016-02-22T03:16:17.820Z,0
2016-02-22T03:17:17.838Z,0
2016-02-22T03:18:17.857Z,0
2016-02-22T03:19:18.095Z,0
2016-02-22T03:20:17.941Z,0
2016-02-22T03:21:17.958Z,0
2016-02-22T03:22:17.947Z,0
2016-02-22T03:23:17.949Z,0
2016-02-22T03:24:17.998Z,0
2016-02-22T03:25:17.844Z,0
2016-02-22T03:26:18.035Z,0
2016-02-22T03:27:18.053Z,0
2016-02-22T03:28:18.071Z,0
2016-02-22T03:29:18.121Z,0
2016-02-22T03:30:18.108Z,0
2016-02-22T03:31:18.127Z,0
2016-02-22T03:32:18.176Z,0
2016-02-22T03:33:18.163Z,0
2016-02-22T03:34:18.197Z,0
2016-02-22T03:35:18.199Z,0
2016-02-22T03:36:18.265Z,0
2016-02-22T03:37:18.298Z,0
2016-02-22T03:38:18.254Z,0
2016-02-22T03:39:18.335Z,0
2016-02-22T03:40:18.401Z,0
2016-02-22T03:41:18.372Z,0
2016-02-22T03:42:18.343Z,0
2016-02-22T03:43:18.409Z,0
2016-02-22T03:44:18.395Z,0
2016-02-22T03:45:18.398Z,0
2016-02-22T03:46:18.448Z,0
2016-02-22T03:47:18.451Z,0
2016-02-22T03:48:18.500Z,0
2016-02-22T03:49:18.503Z,0
2016-02-22T03:50:18.536Z,0
2016-02-22T03:51:18.555Z,0
2016-02-22T03:52:18.574Z,0
2016-02-22T03:53:18.623Z,0
2016-02-22T03:54:18.610Z,0
2016-02-22T03:55:18.628Z,0
2016-02-22T03:56:18.647Z,0
2016-02-22T03:57:18.697Z,0
2016-02-22T03:58:18.699Z,0
2016-02-22T03:59:18.718Z,0
2016-02-22T04:00:18.721Z,0
2016-02-22T04:01:18.754Z,0
2016-02-22T04:02:18.788Z,0
2016-02-22T04:03:18.791Z,0
2016-02-22T04:04:18.840Z,0
2016-02-22T04:05:18.827Z,0
2016-02-22T04:06:18.893Z,0
2016-02-22T04:07:18.895Z,0
2016-02-22T04:08:18.898Z,0
2016-02-22T04:09:18.916Z,0
2016-02-22T04:10:18.950Z,0
2016-02-22T04:11:18.953Z,0
2016-02-22T04:12:18.987Z,0
2016-02-22T04:13:19.021Z,0
2016-02-22T04:14:19.023Z,0
2016-02-22T04:15:19.057Z,0
2016-02-22T04:16:19.076Z,0
2016-02-22T04:17:19.078Z,0
2016-02-22T04:18:19.128Z,0
2016-02-22T04:19:19.130Z,0
2016-02-22T04:20:19.149Z,0
2016-02-22T04:21:19.198Z,0
2016-02-22T04:22:19.169Z,0
2016-02-22T04:23:19.203Z,0
2016-02-22T04:24:19.222Z,0
2016-02-22T04:25:19.255Z,0
2016-02-22T04:26:19.274Z,0
2016-02-22T04:27:19.308Z,0
2016-02-22T04:28:19.326Z,0
2016-02-22T04:29:19.329Z,0
2016-02-22T04:30:19.410Z,0
2016-02-22T04:31:19.382Z,0
2016-02-22T04:32:19.399Z,0
2016-02-22T04:33:19.418Z,0
2016-02-22T04:34:19.452Z,0
2016-02-22T04:35:19.470Z,0
2016-02-22T04:36:19.473Z,0
2016-02-22T04:37:19.507Z,0
2016-02-22T04:38:19.557Z,0
2016-02-22T04:39:19.559Z,0
2016-02-22T04:40:19.578Z,0
2016-02-22T04:41:19.595Z,0
2016-02-22T04:42:19.615Z,0
2016-02-22T04:43:19.648Z,0
2016-02-22T04:44:19.650Z,0
2016-02-22T04:45:19.685Z,0
2016-02-22T04:46:19.672Z,0
2016-02-22T04:47:19.706Z,0
2016-02-22T04:48:19.755Z,0
2016-02-22T04:49:19.759Z,0
2016-02-22T04:50:19.792Z,0
2016-02-22T04:51:19.794Z,0
2016-02-22T04:52:19.141Z,0
2016-02-22T04:53:19.846Z,0
2016-02-22T04:54:19.866Z,0
2016-02-22T04:55:19.883Z,0
2016-02-22T04:56:19.886Z,0
2016-02-22T04:57:19.936Z,0
2016-02-22T04:58:19.938Z,0
2016-02-22T04:59:19.957Z,0
2016-02-22T05:00:19.990Z,0
2016-02-22T05:01:19.822Z,0
2016-02-22T05:02:20.027Z,0
2016-02-22T05:03:20.046Z,0
2016-02-22T05:04:20.064Z,0
2016-02-22T05:05:20.100Z,0
2016-02-22T05:06:20.103Z,0
2016-02-22T05:07:20.137Z,0
2016-02-22T05:08:20.139Z,0
2016-02-22T05:09:20.173Z,0
2016-02-22T05:10:20.192Z,0
2016-02-22T05:11:20.225Z,0
2016-02-22T05:12:20.228Z,0
2016-02-22T05:13:20.262Z,0
2016-02-22T05:14:20.265Z,0
2016-02-22T05:15:20.283Z,0
2016-02-22T05:16:20.317Z,0
2016-02-22T05:17:20.320Z,0
2016-02-22T05:18:20.353Z,0
2016-02-22T05:19:20.371Z,0
2016-02-22T05:20:20.390Z,0
2016-02-22T05:21:20.440Z,0
2016-02-22T05:22:20.427Z,0
2016-02-22T05:23:20.460Z,0
2016-02-22T05:24:20.480Z,0
2016-02-22T05:25:20.529Z,0
2016-02-22T05:26:20.515Z,0
2016-02-22T05:27:20.549Z,0
2016-02-22T05:28:20.569Z,0
2016-02-22T05:29:20.571Z,0
2016-02-22T05:30:20.635Z,0
2016-02-22T05:31:20.607Z,0
2016-02-22T05:32:20.641Z,0
2016-02-22T05:33:20.690Z,0
2016-02-22T05:34:20.678Z,0
2016-02-22T05:35:20.712Z,0
2016-02-22T05:36:20.746Z,0
2016-02-22T05:37:20.732Z,0
2016-02-22T05:38:20.782Z,0
2016-02-22T05:39:20.800Z,0
2016-02-22T05:40:20.850Z,0
2016-02-22T05:41:20.806Z,0
2016-02-22T05:42:20.856Z,0
2016-02-22T05:43:20.858Z,0
2016-02-22T05:44:20.876Z,0
2016-02-22T05:45:20.926Z,0
2016-02-22T05:46:20.928Z,0
2016-02-22T05:47:20.963Z,0
2016-02-22T05:48:20.981Z,0
2016-02-22T05:49:21.000Z,0
2016-02-22T05:50:21.017Z,0
2016-02-22T05:51:21.052Z,0
2016-02-22T05:52:21.039Z,0
2016-02-22T05:53:21.072Z,0
2016-02-22T05:54:20.982Z,0
2016-02-22T05:55:21.141Z,0
2016-02-22T05:56:21.128Z,0
2016-02-22T05:57:21.161Z,0
2016-02-22T05:58:21.179Z,0
2016-02-22T05:59:21.199Z,0
2016-02-22T06:00:21.232Z,0
2016-02-22T06:01:21.235Z,0
2016-02-22T06:02:21.284Z,0
2016-02-22T06:03:21.303Z,0
2016-02-22T06:04:21.305Z,0
2016-02-22T06:05:21.354Z,0
2016-02-22T06:06:21.343Z,0
2016-02-22T06:07:21.376Z,0
2016-02-22T06:08:21.378Z,0
2016-02-22T06:09:21.455Z,0
2016-02-22T06:10:21.415Z,0
2016-02-22T06:11:21.435Z,0
2016-02-22T06:12:21.409Z,0
2016-02-22T06:13:21.432Z,0
2016-02-22T06:14:21.455Z,0
2016-02-22T06:15:21.469Z,0
2016-02-22T06:16:21.482Z,0
2016-02-22T06:17:21.497Z,0
2016-02-22T06:18:21.478Z,0
2016-02-22T06:19:21.540Z,0
2016-02-22T06:20:21.542Z,0
2016-02-22T06:21:21.558Z,0
2016-02-22T06:22:21.590Z,0
2016-02-22T06:23:21.607Z,0
2016-02-22T06:24:21.656Z,0
2016-02-22T06:25:21.641Z,0
2016-02-22T06:26:21.690Z,0
2016-02-22T06:27:21.692Z,0
2016-02-22T06:28:21.710Z,0
2016-02-22T06:29:21.821Z,0
2016-02-22T06:30:21.745Z,0
2016-02-22T06:31:21.811Z,0
2016-02-22T06:32:21.766Z,0
2016-02-22T06:33:21.815Z,0
2016-02-22T06:34:21.818Z,0
2016-02-22T06:35:21.835Z,0
2016-02-22T06:36:21.885Z,0
2016-02-22T06:37:21.873Z,0
2016-02-22T06:38:21.906Z,0
2016-02-22T06:39:21.940Z,0
2016-02-22T06:40:21.927Z,0
2016-02-22T06:41:21.946Z,0
2016-02-22T06:42:22.011Z,0
2016-02-22T06:43:21.997Z,0
2016-02-22T06:44:22.032Z,0
2016-02-22T06:45:22.081Z,0
2016-02-22T06:46:22.053Z,0
2016-02-22T06:47:22.087Z,0
2016-02-22T06:48:22.090Z,0
2016-02-22T06:49:22.108Z,0
2016-02-22T06:50:22.141Z,0
2016-02-22T06:51:22.160Z,0
2016-02-22T06:52:22.210Z,0
2016-02-22T06:53:22.212Z,0
2016-02-22T06:54:22.230Z,0
2016-02-22T06:55:22.249Z,0
2016-02-22T06:56:22.299Z,0
2016-02-22T06:57:22.301Z,5
2016-02-22T06:58:22.304Z,0
2016-02-22T06:59:22.353Z,0
2016-02-22T07:00:22.341Z,5
2016-02-22T07:01:22.218Z,5
2016-02-22T07:02:22.393Z,0
2016-02-22T07:03:22.411Z,5
2016-02-22T07:04:22.460Z,5
2016-02-22T07:05:22.448Z,5
2016-02-22T07:06:22.482Z,5
2016-02-22T07:07:22.485Z,5
2016-02-22T07:08:22.518Z,5
2016-02-22T07:09:22.552Z,5
2016-02-22T07:10:22.554Z,5
2016-02-22T07:11:22.573Z,5
2016-02-22T07:12:22.592Z,5
2016-02-22T07:13:22.640Z,5
2016-02-22T07:14:22.643Z,5
2016-02-22T07:15:22.678Z,5
2016-02-22T07:16:22.665Z,5
2016-02-22T07:17:22.730Z,5
2016-02-22T07:18:22.748Z,5
2016-02-22T07:19:22.720Z,5
2016-02-22T07:20:22.784Z,5
2016-02-22T07:21:22.772Z,5
2016-02-22T07:22:22.805Z,5
2016-02-22T07:23:22.809Z,5
2016-02-22T07:24:22.842Z,5
2016-02-22T07:25:22.860Z,5
2016-02-22T07:26:22.895Z,10
2016-02-22T07:27:22.897Z,5
2016-02-22T07:28:22.916Z,5
2016-02-22T07:29:22.933Z,5
2016-02-22T07:30:22.953Z,5
2016-02-22T07:31:22.986Z,5
2016-02-22T07:32:23.004Z,5
2016-02-22T07:33:23.039Z,5
2016-02-22T07:34:23.057Z,5
2016-02-22T07:35:23.075Z,5
2016-02-22T07:36:23.077Z,5
2016-02-22T07:37:23.112Z,5
2016-02-22T07:38:23.130Z,5
2016-02-22T07:39:23.148Z,5
2016-02-22T07:40:23.167Z,5
2016-02-22T07:41:23.201Z,5
2016-02-22T07:42:23.204Z,5
2016-02-22T07:43:23.268Z,5
2016-02-22T07:44:23.240Z,5
2016-02-22T07:45:23.274Z,5
2016-02-22T07:46:23.292Z,5
2016-02-22T07:47:23.311Z,5
2016-02-22T07:48:23.345Z,5
2016-02-22T07:49:23.347Z,5
2016-02-22T07:50:23.397Z,5
2016-02-22T07:51:23.400Z,5
2016-02-22T07:52:23.403Z,10
2016-02-22T07:53:23.436Z,10
2016-02-22T07:54:23.470Z,15
2016-02-22T07:55:23.645Z,15
2016-02-22T07:56:23.491Z,5
2016-02-22T07:57:23.525Z,10
2016-02-22T07:58:23.372Z,10
2016-02-22T07:59:23.577Z,15
2016-02-22T08:00:23.580Z,5
2016-02-22T08:01:23.614Z,10
2016-02-22T08:02:23.617Z,5
2016-02-22T08:03:23.666Z,5
2016-02-22T08:04:23.668Z,10
2016-02-22T08:05:23.688Z,10
2016-02-22T08:06:23.721Z,10
2016-02-22T08:07:23.582Z,10
2016-02-22T08:08:23.758Z,10
2016-02-22T08:09:23.792Z,10
2016-02-22T08:10:23.794Z,10
2016-02-22T08:11:23.828Z,10
2016-02-22T08:12:23.832Z,10
2016-02-22T08:13:23.849Z,10
2016-02-22T08:14:23.883Z,5
2016-02-22T08:15:23.886Z,10
2016-02-22T08:16:23.920Z,10
2016-02-22T08:17:23.923Z,10
2016-02-22T08:18:23.972Z,10
2016-02-22T08:19:23.975Z,10
2016-02-22T08:20:23.993Z,10
2016-02-22T08:21:24.028Z,10
2016-02-22T08:22:24.030Z,10
2016-02-22T08:23:24.079Z,10
2016-02-22T08:24:24.082Z,15
2016-02-22T08:25:24.100Z,10
2016-02-22T08:26:24.134Z,10
2016-02-22T08:27:24.136Z,10
2016-02-22T08:28:24.171Z,10
2016-02-22T08:29:24.174Z,10
2016-02-22T08:30:24.223Z,10
2016-02-22T08:31:24.210Z,10
2016-02-22T08:32:24.275Z,15
2016-02-22T08:33:24.263Z,10
2016-02-22T08:34:24.327Z,10
2016-02-22T08:35:24.315Z,10
2016-02-22T08:36:24.364Z,10
2016-02-22T08:37:24.335Z,10
2016-02-22T08:38:24.370Z,10
2016-02-22T08:39:24.388Z,10
2016-02-22T08:40:24.422Z,10
2016-02-22T08:41:24.425Z,10
2016-02-22T08:42:24.474Z,10
2016-02-22T08:43:24.477Z,10
2016-02-22T08:44:24.511Z,10
2016-02-22T08:45:24.513Z,10
2016-02-22T08:46:24.579Z,10
2016-02-22T08:47:24.394Z,10
2016-02-22T08:48:24.600Z,10
2016-02-22T08:49:24.603Z,10
2016-02-22T08:50:24.620Z,10
2016-02-22T08:51:24.655Z,10
2016-02-22T08:52:23.907Z,10
2016-02-22T08:53:24.706Z,10
2016-02-22T08:54:24.709Z,10
2016-02-22T08:55:24.743Z,10
2016-02-22T08:56:24.762Z,10
2016-02-22T08:57:24.780Z,10
2016-02-22T08:58:24.798Z,10
2016-02-22T08:59:24.800Z,10
2016-02-22T09:00:24.836Z,10
2016-02-22T09:01:24.853Z,15
2016-02-22T09:02:24.887Z,15
2016-02-22T09:03:24.890Z,20
2016-02-22T09:04:24.939Z,15
2016-02-22T09:05:24.927Z,15
2016-02-22T09:06:24.851Z,15
2016-02-22T09:07:24.979Z,15
2016-02-22T09:08:25.029Z,15
2016-02-22T09:09:25.016Z,10
2016-02-22T09:10:25.049Z,10
2016-02-22T09:11:25.068Z,15
2016-02-22T09:12:25.102Z,10
2016-02-22T09:13:25.104Z,15
2016-02-22T09:14:25.123Z,10
2016-02-22T09:15:25.156Z,10
2016-02-22T09:16:25.159Z,10
2016-02-22T09:17:25.193Z,10
2016-02-22T09:18:25.212Z,10
2016-02-22T09:19:25.262Z,15
2016-02-22T09:20:25.248Z,15
2016-02-22T09:21:25.298Z,15
2016-02-22T09:22:25.300Z,15
2016-02-22T09:23:25.319Z,10
2016-02-22T09:24:25.337Z,10
2016-02-22T09:25:25.355Z,10
2016-02-22T09:26:25.405Z,10
2016-02-22T09:27:25.423Z,10
2016-02-22T09:28:25.426Z,15
2016-02-22T09:29:25.460Z,10
2016-02-22T09:30:25.494Z,10
2016-02-22T09:31:25.481Z,10
2016-02-22T09:32:25.530Z,10
2016-02-22T09:33:25.517Z,10
2016-02-22T09:34:25.552Z,10
2016-02-22T09:35:25.585Z,10
2016-02-22T09:36:25.588Z,10
2016-02-22T09:37:25.622Z,10
2016-02-22T09:38:25.641Z,10
2016-02-22T09:39:25.674Z,10
2016-02-22T09:40:25.677Z,15
2016-02-22T09:41:25.696Z,15
2016-02-22T09:42:25.745Z,10
2016-02-22T09:43:25.732Z,10
2016-02-22T09:44:25.750Z,5
2016-02-22T09:45:25.785Z,10
2016-02-22T09:46:26.334Z,10
2016-02-22T09:47:25.820Z,10
2016-02-22T09:48:25.854Z,10
2016-02-22T09:49:25.873Z,10
2016-02-22T09:50:25.876Z,10
2016-02-22T09:51:25.909Z,10
2016-02-22T09:52:25.929Z,10
2016-02-22T09:53:25.977Z,10
2016-02-22T09:54:25.965Z,10
2016-02-22T09:55:25.998Z,10
2016-02-22T09:56:26.032Z,10
2016-02-22T09:57:26.036Z,10
2016-02-22T09:58:26.054Z,10
2016-02-22T09:59:26.744Z,10
2016-02-22T10:00:31.684Z,15
2016-02-22T10:01:26.124Z,15
2016-02-22T10:02:26.189Z,10
2016-02-22T10:03:26.161Z,10
2016-02-22T10:04:26.022Z,15
2016-02-22T10:05:26.197Z,15
2016-02-22T10:06:26.231Z,15
2016-02-22T10:07:26.249Z,15
2016-02-22T10:08:26.315Z,20
2016-02-22T10:09:26.285Z,15
2016-02-22T10:10:26.335Z,15
2016-02-22T10:11:26.323Z,10
2016-02-22T10:12:26.201Z,15
2016-02-22T10:13:26.374Z,10
2016-02-22T10:14:27.035Z,10
2016-02-22T10:15:26.427Z,5
2016-02-22T10:16:26.445Z,10
2016-02-22T10:17:26.496Z,5
2016-02-22T10:18:26.513Z,5
2016-02-22T10:19:26.516Z,5
2016-02-22T10:20:26.534Z,5
2016-02-22T10:21:26.584Z,10
2016-02-22T10:22:26.587Z,10
2016-02-22T10:23:26.590Z,10
2016-02-22T10:24:26.623Z,10
2016-02-22T10:25:26.642Z,10
2016-02-22T10:26:26.676Z,15
2016-02-22T10:27:26.694Z,15
2016-02-22T10:28:26.712Z,15
2016-02-22T10:29:26.730Z,15
2016-02-22T10:30:26.749Z,10
2016-02-22T10:31:26.767Z,10
2016-02-22T10:32:26.801Z,10
2016-02-22T10:33:26.819Z,10
2016-02-22T10:34:26.838Z,15
2016-02-22T10:35:26.700Z,15
2016-02-22T10:36:26.874Z,20
2016-02-22T10:37:26.908Z,20
2016-02-22T10:38:26.911Z,20
2016-02-22T10:39:26.945Z,25
2016-02-22T10:40:26.979Z,25
2016-02-22T10:41:26.982Z,25
2016-02-22T10:42:26.999Z,30
2016-02-22T10:43:27.049Z,25
2016-02-22T10:44:27.052Z,30
2016-02-22T10:45:27.071Z,30
2016-02-22T10:46:27.104Z,25
2016-02-22T10:47:27.107Z,30
2016-02-22T10:48:27.141Z,30
2016-02-22T10:49:27.159Z,35
2016-02-22T10:50:27.193Z,35
2016-02-22T10:51:27.212Z,30
2016-02-22T10:52:27.215Z,30
2016-02-22T10:53:27.232Z,30
2016-02-22T10:54:27.267Z,30
2016-02-22T10:55:27.301Z,25
2016-02-22T10:56:27.287Z,25
2016-02-22T10:57:27.322Z,25
2016-02-22T10:58:27.340Z,25
2016-02-22T10:59:27.390Z,30
2016-02-22T11:00:27.376Z,35
2016-02-22T11:01:27.411Z,35
2016-02-22T11:02:27.460Z,35
2016-02-22T11:03:27.478Z,40
2016-02-22T11:04:27.481Z,35
2016-02-22T11:05:27.500Z,35
2016-02-22T11:06:27.517Z,35
2016-02-22T11:07:27.567Z,30
2016-02-22T11:08:27.569Z,30
2016-02-22T11:09:27.588Z,30
2016-02-22T11:10:27.653Z,20
2016-02-22T11:11:27.624Z,20
2016-02-22T11:12:27.674Z,25
2016-02-22T11:13:27.677Z,20
2016-02-22T11:14:27.899Z,20
2016-02-22T11:15:27.713Z,25
2016-02-22T11:16:27.748Z,20
2016-02-22T11:17:27.750Z,15
2016-02-22T11:18:27.785Z,15
2016-02-22T11:19:27.802Z,15
2016-02-22T11:20:27.868Z,15
2016-02-22T11:21:27.854Z,15
2016-02-22T11:22:27.873Z,10
2016-02-22T11:23:27.892Z,15
2016-02-22T11:24:27.926Z,10
2016-02-22T11:25:27.943Z,10
2016-02-22T11:26:28.196Z,10
2016-02-22T11:27:28.043Z,15
2016-02-22T11:28:27.983Z,10
2016-02-22T11:29:28.048Z,10
2016-02-22T11:30:28.066Z,15
2016-02-22T11:31:28.085Z,10
2016-02-22T11:32:28.087Z,15
2016-02-22T11:33:28.122Z,15
2016-02-22T11:34:28.124Z,15
2016-02-22T11:35:28.158Z,15
2016-02-22T11:36:28.192Z,15
2016-02-22T11:37:28.225Z,10
2016-02-22T11:38:28.213Z,10
2016-02-22T11:39:28.247Z,15
2016-02-22T11:40:28.328Z,15
2016-02-22T11:41:28.283Z,15
2016-02-22T11:42:28.333Z,20
2016-02-22T11:43:28.335Z,20
2016-02-22T11:44:28.370Z,20
2016-02-22T11:45:28.388Z,15
2016-02-22T11:46:28.407Z,15
2016-02-22T11:47:28.424Z,10
2016-02-22T11:48:28.443Z,10
2016-02-22T11:49:28.462Z,10
2016-02-22T11:50:28.496Z,15
2016-02-22T11:51:28.560Z,10
2016-02-22T11:52:28.562Z,10
2016-02-22T11:53:28.566Z,15
2016-02-22T11:54:28.568Z,15
2016-02-22T11:55:28.603Z,10
2016-02-22T11:56:28.620Z,10
2016-02-22T11:57:28.655Z,10
2016-02-22T11:58:28.657Z,10
2016-02-22T11:59:28.692Z,15
2016-02-22T12:00:28.694Z,10
2016-02-22T12:01:28.728Z,10
2016-02-22T12:02:28.747Z,10
2016-02-22T12:03:28.795Z,10
2016-02-22T12:04:28.783Z,10
2016-02-22T12:05:28.816Z,10
2016-02-22T12:06:28.836Z,10
2016-02-22T12:07:28.853Z,10
2016-02-22T12:08:28.888Z,10
2016-02-22T12:09:28.890Z,15
2016-02-22T12:10:28.925Z,10
2016-02-22T12:11:28.942Z,10
2016-02-22T12:12:28.961Z,10
2016-02-22T12:13:28.979Z,10
2016-02-22T12:14:29.012Z,10
2016-02-22T12:15:29.032Z,10
2016-02-22T12:16:29.081Z,10
2016-02-22T12:17:29.083Z,15
2016-02-22T12:18:29.132Z,10
2016-02-22T12:19:29.121Z,10
2016-02-22T12:20:29.154Z,15
2016-02-22T12:21:29.157Z,10
2016-02-22T12:22:29.221Z,10
2016-02-22T12:23:29.225Z,10
2016-02-22T12:24:29.227Z,15
2016-02-22T12:25:29.262Z,10
2016-02-22T12:26:29.264Z,10
2016-02-22T12:27:29.313Z,10
2016-02-22T12:28:29.301Z,5
2016-02-22T12:29:29.335Z,5
2016-02-22T12:30:29.368Z,5
2016-02-22T12:31:29.370Z,5
2016-02-22T12:32:29.406Z,5
2016-02-22T12:33:29.423Z,5
2016-02-22T12:34:29.442Z,5
2016-02-22T12:35:29.319Z,5
2016-02-22T12:36:29.510Z,0
2016-02-22T12:37:29.511Z,0
2016-02-22T12:38:29.531Z,0
2016-02-22T12:39:29.596Z,0
2016-02-22T12:40:29.582Z,0
2016-02-22T12:41:29.602Z,0
2016-02-22T12:42:29.651Z,0
2016-02-22T12:43:29.638Z,0
2016-02-22T12:44:29.671Z,0
2016-02-22T12:45:29.691Z,0
2016-02-22T12:46:29.708Z,0
2016-02-22T12:47:29.727Z,0
2016-02-22T12:48:29.776Z,0
2016-02-22T12:49:29.794Z,0
2016-02-22T12:50:29.797Z,0
2016-02-22T12:51:29.832Z,0
2016-02-22T12:52:29.834Z,0
2016-02-22T12:53:30.826Z,0
2016-02-22T12:54:29.876Z,0
2016-02-22T12:55:29.940Z,0
2016-02-22T12:56:30.396Z,5
2016-02-22T12:57:29.946Z,5
2016-02-22T12:58:29.981Z,5
2016-02-22T12:59:30.029Z,5
2016-02-22T13:00:30.422Z,10
2016-02-22T13:01:30.035Z,15
2016-02-22T13:02:30.084Z,10
2016-02-22T13:03:30.072Z,10
2016-02-22T13:04:30.137Z,5
2016-02-22T13:05:30.124Z,10
2016-02-22T13:06:30.142Z,10
2016-02-22T13:07:30.222Z,10
2016-02-22T13:08:30.178Z,10
2016-02-22T13:09:30.213Z,10
2016-02-22T13:10:30.231Z,5
2016-02-22T13:11:30.265Z,10
2016-02-22T13:12:30.283Z,5
2016-02-22T13:13:30.302Z,5
2016-02-22T13:14:30.319Z,5
2016-02-22T13:15:30.369Z,5
2016-02-22T13:16:30.357Z,5
2016-02-22T13:17:30.422Z,5
2016-02-22T13:18:30.409Z,5
2016-02-22T13:19:30.287Z,5
2016-02-22T13:20:30.445Z,5
2016-02-22T13:21:30.495Z,5
2016-02-22T13:22:30.498Z,5
2016-02-22T13:23:30.548Z,0
2016-02-22T13:24:30.534Z,0
2016-02-22T13:25:30.568Z,0
2016-02-22T13:26:30.618Z,5
2016-02-22T13:27:30.604Z,5
2016-02-22T13:28:30.623Z,5
2016-02-22T13:29:30.657Z,5
2016-02-22T13:30:30.660Z,5
2016-02-22T13:31:30.695Z,0
2016-02-22T13:32:30.712Z,5
2016-02-22T13:33:30.730Z,5
2016-02-22T13:34:30.749Z,5
2016-02-22T13:35:30.767Z,5
2016-02-22T13:36:30.817Z,5
2016-02-22T13:37:30.819Z,5
2016-02-22T13:38:30.853Z,10
2016-02-22T13:39:30.871Z,5
2016-02-22T13:40:30.921Z,5
2016-02-22T13:41:30.908Z,5
2016-02-22T13:42:30.911Z,5
2016-02-22T13:43:30.976Z,5
2016-02-22T13:44:30.963Z,5
2016-02-22T13:45:31.013Z,5
2016-02-22T13:46:31.000Z,5
2016-02-22T13:47:31.065Z,5
2016-02-22T13:48:31.069Z,10
2016-02-22T13:49:31.071Z,5
2016-02-22T13:50:31.104Z,5
2016-02-22T13:51:31.123Z,5
2016-02-22T13:52:31.141Z,5
2016-02-22T13:53:31.806Z,5
2016-02-22T13:54:31.519Z,5
2016-02-22T13:55:31.223Z,5
2016-02-22T13:56:40.329Z,5
2016-02-22T13:57:31.254Z,5
2016-02-22T13:58:31.257Z,5
2016-02-22T13:59:31.446Z,5
2016-02-22T14:00:31.384Z,10
2016-02-22T14:01:31.324Z,10
2016-02-22T14:02:31.359Z,5
2016-02-22T14:03:31.362Z,5
2016-02-22T14:04:31.443Z,5
2016-02-22T14:05:31.258Z,5
2016-02-22T14:06:31.416Z,5
2016-02-22T14:07:31.466Z,5
2016-02-22T14:08:31.500Z,5
2016-02-22T14:09:31.518Z,0
2016-02-22T14:10:31.520Z,0
2016-02-22T14:11:31.540Z,0
2016-02-22T14:12:31.574Z,0
2016-02-22T14:13:31.576Z,0
2016-02-22T14:14:31.610Z,0
2016-02-22T14:15:30.909Z,0
2016-02-22T14:16:31.647Z,5
2016-02-22T14:17:31.681Z,5
2016-02-22T14:18:31.683Z,5
2016-02-22T14:19:31.701Z,5
2016-02-22T14:20:31.750Z,5
2016-02-22T14:21:31.754Z,5
2016-02-22T14:22:31.772Z,0
2016-02-22T14:23:31.791Z,0
2016-02-22T14:24:31.824Z,5
2016-02-22T14:25:31.843Z,5
2016-02-22T14:26:31.861Z,0
2016-02-22T14:27:31.911Z,0
2016-02-22T14:28:31.897Z,5
2016-02-22T14:29:31.916Z,5
2016-02-22T14:30:31.950Z,5
2016-02-22T14:31:31.952Z,5
2016-02-22T14:32:32.002Z,0
2016-02-22T14:33:32.005Z,0
2016-02-22T14:34:32.007Z,0
2016-02-22T14:35:32.073Z,0
2016-02-22T14:36:32.065Z,5